• Join FlightAware (Why Join?)
  • Login
  • US Flag 
06:53AM EDT


 

Airport Tracker/Info


-or-


 

Live Flight TrackerFlight Track Log ✈ UAL906 ✈ 17-Apr-2013 ✈ KORD - EDDM / MUC

Flight Track Log - Related Links

Times and Time Zones

All times are in EDT time to prevent confusion due to time zone crossing. See the UAL906 flight status page for this flight to view local times or setup timezone preferences in your user account.

Time Position Orientation Groundspeed Altitude Reporting Facility
EDT Latitude Longitude Course Direction KTS MPH feet Rate Location/Type
08:12PM 41.9833 -87.8500 56° Northeast 196 226 2,700  Level Chicago TRACON
08:14PM 42.0511 -87.7164 56° Northeast 265 305 5,800 1,980 Climbing Chicago Center
08:15PM 42.0978 -87.6081 60° Northeast 326 375 8,400 2,580 Climbing Chicago Center
08:16PM 42.1497 -87.5028 56° Northeast 339 390 11,100 2,580 Climbing Chicago Center
08:17PM 42.2294 -87.4331 33° Northeast 350 403 13,700 1,980 Climbing Chicago Center
08:18PM 42.3175 -87.4569 349° North 324 373 15,200 1,260 Climbing Chicago Center
08:19PM 42.4275 -87.4981 345° North 346 398 16,400 1,500 Climbing Chicago Center
08:20PM 42.5342 -87.5372 345° North 393 452 18,300 1,860 Climbing Chicago Center
08:21PM 42.6383 -87.5767 344° North 406 467 20,200 1,860 Climbing Chicago Center
08:22PM 42.7500 -87.6144 346° North 413 475 22,200 1,620 Climbing Chicago Center
08:23PM 42.8633 -87.6564 345° North 420 483 23,600 1,320 Climbing Chicago Center
08:24PM 42.9856 -87.6067 17° North 476 548 25,000 1,440 Climbing Chicago Center
08:25PM 43.1064 -87.4633 41° Northeast 497 572 26,600 1,260 Climbing Chicago Center
08:26PM 43.1956 -87.3567 41° Northeast 502 578 27,700 1,080 Climbing Chicago Center
08:27PM 43.3064 -87.2275 40° Northeast 517 595 28,800 1,440 Climbing Chicago Center
08:28PM 43.4356 -87.0719 41° Northeast 512 589 30,700 1,500 Climbing Chicago Center
08:29PM 43.5439 -86.9419 41° Northeast 515 593 31,900 1,080 Climbing Chicago Center
08:30PM 43.6525 -86.8114 41° Northeast 516 594 33,000 660 Climbing Chicago Center
08:31PM 43.7172 -86.7336 41° Northeast 516 594 33,000  Level Minneapolis Center
08:32PM 43.8264 -86.5992 42° Northeast 523 602 33,000  Level Minneapolis Center
08:33PM 43.9372 -86.4644 41° Northeast 528 608 33,000  Level Minneapolis Center
08:34PM 44.0475 -86.3292 41° Northeast 529 609 33,000  Level Minneapolis Center
08:35PM 44.1628 -86.1839 42° Northeast 532 612 33,000  Level Minneapolis Center
08:36PM 44.2728 -86.0478 42° Northeast 532 612 33,000  Level Minneapolis Center
08:37PM 44.3831 -85.9097 42° Northeast 537 618 33,000  Level Minneapolis Center
08:38PM 44.5131 -85.7461 42° Northeast 532 612 33,000  Level Minneapolis Center
08:39PM 44.6208 -85.6083 42° Northeast 532 612 33,000  Level Minneapolis Center
08:40PM 44.6578 -85.4133 75° East 531 611 33,000  Level Minneapolis Center
08:41PM 44.6392 -85.2136 97° East 521 600 33,000  Level Minneapolis Center
08:42PM 44.6189 -85.0133 98° East 519 597 33,000  Level Minneapolis Center
08:43PM 44.5958 -84.7739 98° East 518 596 33,000  Level Minneapolis Center
08:44PM 44.5767 -84.5753 98° East 516 594 33,000  Level Minneapolis Center
08:45PM 44.5564 -84.3753 98° East 518 596 33,000  Level Minneapolis Center
08:46PM 44.5364 -84.1775 98° East 517 595 33,000  Level Minneapolis Center
08:47PM 44.5147 -83.9786 99° East 517 595 33,000  Level Minneapolis Center
08:48PM 44.4942 -83.7800 98° East 517 595 33,000  Level Minneapolis Center
08:49PM 44.4683 -83.5431 99° East 515 593 33,000  Level Minneapolis Center
08:50PM 44.4606 -83.3428 93° East 518 596 33,000  Level Minneapolis Center
08:52PM 44.5019 -83.1464 73° East 524 603 33,000  Level Minneapolis Center
08:53PM 44.5406 -82.9508 74° East 524 603 33,000  Level Minneapolis Center
08:54PM 44.5808 -82.7561 74° East 523 602 33,000  Level Minneapolis Center
08:55PM 44.6194 -82.5592 75° East 524 603 33,000  Level Minneapolis Center
08:55PM 44.6333 -82.4500 80° East 520 598 33,000  Level Toronto Center
08:56PM 44.6500 -82.2500 83° East 530 610 33,000  Level Toronto Center
08:57PM 44.6833 -82.0667 76° East 520 598 33,000  Level Toronto Center
08:58PM 44.7500 -81.8667 65° Northeast 530 610 33,000  Level Toronto Center
08:59PM 44.7667 -81.6833 83° East 520 598 33,000  Level Toronto Center
09:00PM 44.8167 -81.4667 72° East 520 598 33,000  Level Toronto Center
09:01PM 44.8333 -81.2833 83° East 520 598 33,000  Level Toronto Center
09:02PM 44.8833 -81.0667 72° East 520 598 33,000  Level Toronto Center
09:03PM 44.9167 -80.8833 76° East 520 598 33,000  Level Toronto Center
09:04PM 44.9500 -80.6667 78° East 530 610 33,000  Level Toronto Center
09:05PM 45.0000 -80.4500 72° East 540 621 33,000  Level Toronto Center
09:06PM 45.0333 -80.2667 76° East 540 621 33,000  Level Toronto Center
09:07PM 45.0667 -80.0333 78° East 540 621 33,000  Level Toronto Center
09:08PM 45.1000 -79.8500 75° East 540 621 33,000  Level Toronto Center
09:09PM 45.1333 -79.6333 78° East 540 621 33,000 180 Level Toronto Center
09:10PM 45.1667 -79.4500 75° East 540 621 33,400 420 Climbing Toronto Center
09:11PM 45.2000 -79.2333 78° East 530 610 33,900 480 Climbing Toronto Center
09:12PM 45.2333 -79.0167 78° East 530 610 34,400 480 Climbing Toronto Center
09:13PM 45.2833 -78.8000 72° East 540 621 34,900 300 Climbing Toronto Center
09:14PM 45.3167 -78.6167 75° East 540 621 35,000  Climbing Toronto Center
09:15PM 45.3500 -78.4167 77° East 540 621 35,000  Level Toronto Center
09:16PM 45.3833 -78.2000 78° East 540 621 35,000  Level Toronto Center
09:17PM 45.4167 -78.0667 70° East 530 610 35,000  Level Montreal Center
09:18PM 45.4667 -77.8833 69° East 530 610 35,000  Level Montreal Center
09:19PM 45.5000 -77.6667 78° East 530 610 35,000  Level Montreal Center
09:20PM 45.5333 -77.4500 78° East 530 610 35,000  Level Montreal Center
09:21PM 45.5667 -77.2333 78° East 530 610 35,000  Level Montreal Center
09:22PM 45.6000 -77.0500 75° East 530 610 35,000  Level Montreal Center
09:23PM 45.6333 -76.8500 77° East 530 610 35,000  Level Montreal Center
09:24PM 45.6667 -76.6333 78° East 540 621 35,000  Level Montreal Center
09:25PM 45.7167 -76.4167 72° East 540 621 35,000  Level Montreal Center
09:26PM 45.7500 -76.2000 77° East 540 621 35,000  Level Montreal Center
09:27PM 45.7833 -76.0167 75° East 540 621 35,000  Level Montreal Center
09:28PM 45.8167 -75.8000 77° East 540 621 35,000  Level Montreal Center
09:29PM 45.8500 -75.5833 77° East 540 621 35,000  Level Montreal Center
09:30PM 45.8833 -75.3833 76° East 540 621 35,000  Level Montreal Center
09:31PM 45.9000 -75.1667 84° East 540 621 35,000  Level Montreal Center
09:32PM 45.9333 -74.9500 77° East 540 621 35,000  Level Montreal Center
09:33PM 45.9667 -74.7667 75° East 540 621 35,000  Level Montreal Center
09:34PM 46.0000 -74.5167 79° East 540 621 35,000  Level Montreal Center
09:35PM 46.0333 -74.3333 75° East 530 610 35,000  Level Montreal Center
09:36PM 46.0667 -74.1333 76° East 540 621 35,000  Level Montreal Center
09:37PM 46.1167 -73.8833 74° East 530 610 35,000  Level Montreal Center
09:38PM 46.1333 -73.7000 82° East 530 610 35,000  Level Montreal Center
09:39PM 46.1667 -73.4667 78° East 530 610 35,000  Level Montreal Center
09:40PM 46.2000 -73.2833 75° East 530 610 35,000  Level Montreal Center
09:41PM 46.2167 -73.0667 84° East 530 610 35,000  Level Montreal Center
09:42PM 46.2500 -72.8333 78° East 530 610 35,000  Level Montreal Center
09:43PM 46.2833 -72.6500 75° East 530 610 35,000  Level Montreal Center
09:44PM 46.3000 -72.4167 84° East 530 610 35,000  Level Montreal Center
09:45PM 46.3333 -72.2000 77° East 540 621 35,000  Level Montreal Center
09:46PM 46.3500 -72.0000 83° East 540 621 35,000  Level Montreal Center
09:47PM 46.3833 -71.7833 77° East 540 621 35,000  Level Montreal Center
09:48PM 46.4000 -71.5667 84° East 540 621 35,000  Level Montreal Center
09:49PM 46.4333 -71.3500 77° East 540 621 35,000  Level Montreal Center
09:50PM 46.4500 -71.1500 83° East 530 610 35,000  Level Montreal Center
09:51PM 46.4833 -70.9167 78° East 530 610 35,000  Level Montreal Center
09:52PM 46.5000 -70.7333 82° East 530 610 35,000  Level Montreal Center
09:53PM 46.5333 -70.5000 78° East 530 610 35,000  Level Montreal Center
09:54PM 46.5500 -70.3000 83° East 530 610 35,000  Level Montreal Center
09:55PM 46.5667 -70.0833 84° East 530 610 35,000  Level Montreal Center
09:56PM 46.6000 -69.8667 77° East 530 610 35,000  Level Montreal Center
09:57PM 46.6308 -69.7183 73° East 528 608 35,000  Level Boston Center
09:58PM 46.6508 -69.5058 82° East 528 608 35,000  Level Boston Center
09:59PM 46.6703 -69.2961 82° East 523 602 35,000  Level Boston Center
10:00PM 46.6953 -69.0678 81° East 523 602 35,000  Level Boston Center
10:01PM 46.7158 -68.8517 82° East 523 602 35,000  Level Boston Center
10:02PM 46.7361 -68.6386 82° East 528 608 35,000  Level Boston Center
10:03PM 46.7583 -68.4250 81° East 530 610 35,000  Level Boston Center
10:04PM 46.7756 -68.2086 83° East 525 604 35,000  Level Boston Center
10:05PM 46.7964 -67.9825 82° East 536 617 35,000  Level Boston Center
10:05PM 46.8000 -67.8500 88° East 530 610 35,000  Level Moncton Center
10:06PM 46.8167 -67.6500 83° East 530 610 35,000  Level Moncton Center
10:07PM 46.8167 -67.4333 90° East 530 610 35,000  Level Moncton Center
10:08PM 46.8500 -67.2167 77° East 530 610 35,000  Level Moncton Center
10:09PM 46.8667 -67.0000 84° East 530 610 35,000  Level Moncton Center
10:10PM 46.8833 -66.8000 83° East 520 598 35,000  Level Moncton Center
10:11PM 46.9167 -66.5833 77° East 510 587 35,000  Level Moncton Center
10:12PM 46.9333 -66.3833 83° East 510 587 35,000  Level Moncton Center
10:13PM 46.9500 -66.1667 83° East 510 587 35,000  Level Moncton Center
10:14PM 46.9667 -65.9667 83° East 500 575 35,000  Level Moncton Center
10:15PM 46.9833 -65.7667 83° East 500 575 35,000  Level Moncton Center
10:16PM 47.0000 -65.5500 83° East 510 587 35,000  Level Moncton Center
10:17PM 47.0333 -65.3500 76° East 510 587 35,000  Level Moncton Center
10:18PM 47.0500 -65.1333 83° East 500 575 35,000  Level Moncton Center
10:19PM 47.0667 -64.9333 83° East 500 575 35,000  Level Moncton Center
10:20PM 47.0833 -64.7333 83° East 500 575 35,000  Level Moncton Center
10:21PM 47.1000 -64.5500 82° East 500 575 35,000  Level Moncton Center
10:22PM 47.1167 -64.3500 83° East 500 575 35,000  Level Moncton Center
10:23PM 47.1333 -64.1333 83° East 500 575 35,000  Level Moncton Center
10:24PM 47.1500 -63.9333 83° East 500 575 35,000  Level Moncton Center
10:25PM 47.1667 -63.7333 83° East 500 575 35,000  Level Moncton Center
10:26PM 47.1833 -63.5333 83° East 500 575 35,000  Level Moncton Center
10:27PM 47.2000 -63.3167 83° East 500 575 35,000  Level Moncton Center
10:28PM 47.2000 -63.1167 90° East 500 575 35,000  Level Moncton Center
10:29PM 47.2167 -62.9167 83° East 500 575 35,000  Level Moncton Center
10:30PM 47.2333 -62.7167 83° East 500 575 35,000  Level Moncton Center
10:31PM 47.2500 -62.5167 83° East 500 575 35,000  Level Moncton Center
10:32PM 47.2667 -62.3000 83° East 500 575 35,000  Level Moncton Center
10:33PM 47.2833 -62.1000 83° East 500 575 35,000  Level Moncton Center
10:34PM 47.2833 -61.9000 90° East 500 575 35,000  Level Moncton Center
10:35PM 47.3000 -61.8500 64° Northeast 500 575 35,000  Level Gander Center
10:36PM 47.3000 -61.6333 90° East 500 575 35,000  Level Gander Center
10:36PM 47.3167 -61.4833 81° East 500 575 35,000  Level Moncton Center
10:37PM 47.3167 -61.2833 90° East 490 564 35,000  Level Moncton Center
10:38PM 47.3333 -61.0833 83° East 500 575 35,000  Level Moncton Center
10:39PM 47.3500 -60.8833 83° East 500 575 35,000  Level Moncton Center
10:40PM 47.3500 -60.7833 90° East 500 575 35,000  Level Gander Center
10:40PM 47.3500 -60.6667 90° East 500 575 35,000  Level Moncton Center
10:41PM 47.3667 -60.4667 83° East 500 575 35,000  Level Moncton Center
10:42PM 47.3667 -60.2500 90° East 510 587 35,000  Level Moncton Center
10:43PM 47.3667 -60.1667 90° East 510 587 35,000  Level Gander Center
10:43PM 47.3833 -60.0500 78° East 500 575 35,000  Level Moncton Center
10:44PM 47.3833 -59.8167 90° East 510 587 35,000  Level Moncton Center
10:45PM 47.4000 -59.6167 83° East 510 587 35,000  Level Moncton Center
10:46PM 47.4000 -59.5500 90° East 510 587 35,000  Level Gander Center
10:47PM 47.4167 -59.3333 83° East 510 587 35,000  Level Gander Center
10:47PM 47.4167 -59.2000 90° East 510 587 35,000  Level Moncton Center
10:48PM 47.4167 -59.0000 90° East 510 587 35,000  Level Moncton Center
10:49PM 47.4333 -58.7833 83° East 510 587 35,000  Level Moncton Center
10:50PM 47.4333 -58.5833 90° East 520 598 35,000  Level Moncton Center
10:51PM 47.4333 -58.3500 90° East 520 598 35,000  Level Moncton Center
10:52PM 47.4500 -58.1333 83° East 520 598 35,000  Level Moncton Center
10:53PM 47.4500 -58.0500 90° East 520 598 35,000  Level Gander Center
10:53PM 47.4500 -57.9000 90° East 520 598 35,000  Level Moncton Center
10:54PM 47.4500 -57.7000 90° East 530 610 35,000  Level Moncton Center
10:55PM 47.4667 -57.6167 73° East 530 610 35,000  Level Gander Center
10:56PM 47.4833 -57.4000 83° East 530 610 35,000  Level Gander Center
10:56PM 47.5000 -57.2833 78° East 530 610 35,000  Level Moncton Center
10:57PM 47.5167 -57.0500 84° East 520 598 35,000  Level Moncton Center
10:58PM 47.5333 -56.8500 83° East 520 598 35,000  Level Moncton Center
10:59PM 47.5500 -56.6333 83° East 520 598 35,000  Level Moncton Center
11:00PM 47.5667 -56.4167 83° East 510 587 35,000  Level Moncton Center
11:01PM 47.5833 -56.2167 83° East 510 587 35,000  Level Moncton Center
11:02PM 47.6167 -56.0167 76° East 510 587 35,000  Level Moncton Center
11:03PM 47.6333 -55.8000 83° East 520 598 35,000  Level Moncton Center
11:04PM 47.6500 -55.7333 70° East 510 587 35,000  Level Gander Center
11:04PM 47.6667 -55.5833 81° East 510 587 35,000  Level Moncton Center
11:05PM 47.6667 -55.3667 90° East 510 587 35,000  Level Moncton Center
11:06PM 47.6833 -55.1667 83° East 520 598 35,000  Level Moncton Center
11:07PM 47.7000 -54.9500 83° East 520 598 35,000  Level Moncton Center
11:08PM 47.7167 -54.7333 83° East 520 598 35,000  Level Moncton Center
11:09PM 47.7167 -54.5333 90° East 520 598 35,000  Level Moncton Center
11:10PM 47.7333 -54.3000 84° East 520 598 35,000  Level Moncton Center
11:11PM 47.7667 -54.0833 77° East 520 598 35,000  Level Moncton Center
11:12PM 47.7667 -54.0167 90° East 520 598 35,000  Level Gander Center
11:13PM 47.7833 -53.8000 83° East 520 598 35,000  Level Gander Center
11:14PM 47.8000 -53.5833 83° East 520 598 35,000  Level Gander Center
11:15PM 47.8167 -53.3667 83° East 520 598 35,000  Level Gander Center
11:16PM 47.8333 -53.1333 84° East 520 598 35,000  Level Gander Center
11:17PM 47.8333 -52.9333 90° East 520 598 35,000  Level Gander Center
11:18PM 47.8500 -52.7333 83° East 520 598 35,000  Level Gander Center
11:19PM 47.8667 -52.5000 84° East 520 598 35,000  Level Gander Center
11:20PM 47.8667 -52.3000 90° East 520 598 35,000  Level Gander Center
11:21PM 47.8833 -52.0833 83° East 520 598 35,000  Level Gander Center
11:22PM 47.9000 -51.8667 83° East 520 598 35,000  Level Gander Center
11:23PM 47.9167 -51.6500 83° East 520 598 35,000  Level Gander Center
11:24PM 47.9167 -51.4167 90° East 520 598 35,000  Level Gander Center
11:25PM 47.9333 -51.2167 83° East 520 598 35,000  Level Gander Center
11:26PM 47.9333 -50.9833 90° East 530 610 35,000  Level Gander Center
11:27PM 47.9500 -50.7833 83° East 530 610 35,000  Level Gander Center
11:28PM 47.9667 -50.5500 84° East 530 610 35,000  Level Gander Center
11:29PM 47.9667 -50.3500 90° East 530 610 35,000  Level Gander Center
11:30PM 47.9833 -50.1333 83° East 520 598 35,000  Level Gander Center
11:31PM 47.9833 -49.9000 90° East 520 598 35,000  Level Gander Center
11:32PM 48.0167 -49.7167 75° East 520 598 35,000  Level Gander Center
11:33PM 48.0833 -49.5000 65° Northeast 520 598 35,000  Level Gander Center
11:34PM 48.1167 -49.2833 77° East 520 598 35,000  Level Gander Center
11:35PM 48.1667 -49.0667 71° East 520 598 35,000  Level Gander Center
11:36PM 48.2333 -48.8833 61° Northeast 520 598 35,000  Level Gander Center
11:37PM 48.2833 -48.6667 71° East 520 598 35,000  Level Gander Center
11:38PM 48.3167 -48.4833 75° East 520 598 35,000  Level Gander Center
11:39PM 48.3667 -48.2667 71° East 520 598 35,000  Level Gander Center
11:40PM 48.4333 -48.0667 63° Northeast 530 610 35,000  Level Gander Center
11:41PM 48.4667 -47.8500 77° East 530 610 35,000  Level Gander Center
11:42PM 48.5167 -47.6333 71° East 530 610 35,000  Level Gander Center
11:43PM 48.5667 -47.4500 68° East 530 610 35,000  Level Gander Center
11:44PM 48.6167 -47.2333 71° East 530 610 35,000  Level Gander Center
11:45PM 48.6667 -47.0000 72° East 530 610 35,000  Level Gander Center
11:46PM 48.7167 -46.8167 67° East 530 610 35,000  Level Gander Center
11:48PM 48.8118 -46.4727 67° East  Level FlightAware Approximate
11:55PM 49.1125 -45.0612 72° East  Level FlightAware Approximate
11:56PM 49.1529 -44.8576 73° East  Level FlightAware Approximate
11:57PM 49.1930 -44.6537 73° East  Level FlightAware Approximate
11:58PM 49.2327 -44.4495 73° East  Level FlightAware Approximate
11:59PM 49.2721 -44.2449 73° East  Level FlightAware Approximate
12:00AM 49.3111 -44.0401 74° East  Level FlightAware Approximate
12:01AM 49.3498 -43.8349 74° East  Level FlightAware Approximate
12:02AM 49.3881 -43.6294 74° East  Level FlightAware Approximate
12:03AM 49.4260 -43.4235 74° East  Level FlightAware Approximate
12:04AM 49.4635 -43.2174 74° East  Level FlightAware Approximate
12:05AM 49.5009 -43.0110 74° East  Level FlightAware Approximate
12:06AM 49.5380 -42.8044 74° East  Level FlightAware Approximate
12:07AM 49.5748 -42.5974 75° East  Level FlightAware Approximate
12:08AM 49.6111 -42.3901 75° East  Level FlightAware Approximate
12:09AM 49.6471 -42.1825 75° East  Level FlightAware Approximate
12:10AM 49.6827 -41.9746 75° East  Level FlightAware Approximate
12:11AM 49.7179 -41.7664 75° East  Level FlightAware Approximate
12:12AM 49.7528 -41.5579 75° East  Level FlightAware Approximate
12:13AM 49.7873 -41.3491 76° East  Level FlightAware Approximate
12:14AM 49.8214 -41.1400 76° East  Level FlightAware Approximate
12:15AM 49.8552 -40.9306 76° East  Level FlightAware Approximate
12:16AM 49.8885 -40.7210 76° East  Level FlightAware Approximate
12:17AM 49.9215 -40.5110 76° East  Level FlightAware Approximate
12:18AM 49.9541 -40.3008 76° East  Level FlightAware Approximate
12:19AM 49.9863 -40.0902 77° East  Level FlightAware Approximate
12:20AM 50.0175 -39.8792 77° East  Level FlightAware Approximate
12:21AM 50.0479 -39.6677 77° East  Level FlightAware Approximate
12:22AM 50.0779 -39.4559 77° East  Level FlightAware Approximate
12:22AM 48.0000 -50.0000 69° East 524 603 35,000  Level ETMS Enhanced Traffic Management System
12:22AM 50.0000 -40.0000 77° East 492 566 35,000  Level ETMS Enhanced Traffic Management System
12:23AM 50.1075 -39.2439 78° East  Level FlightAware Approximate
12:24AM 50.1367 -39.0317 78° East  Level FlightAware Approximate
12:25AM 50.1655 -38.8191 78° East  Level FlightAware Approximate
12:26AM 50.1940 -38.6063 78° East  Level FlightAware Approximate
12:27AM 50.2220 -38.3933 78° East  Level FlightAware Approximate
12:28AM 50.2840 -37.9105 79° East 492 566 35,000  Level FlightAware Transoceanic
12:29AM 50.3103 -37.7002 79° East 492 566 35,000  Level FlightAware Transoceanic
12:30AM 50.3363 -37.4897 79° East 492 566 35,000  Level FlightAware Transoceanic
12:31AM 50.3619 -37.2789 79° East 492 566 35,000  Level FlightAware Transoceanic
12:32AM 50.3870 -37.0680 79° East 492 566 35,000  Level FlightAware Transoceanic
12:33AM 50.4118 -36.8568 80° East 492 566 35,000  Level FlightAware Transoceanic
12:34AM 50.4363 -36.6454 80° East 492 566 35,000  Level FlightAware Transoceanic
12:35AM 50.4603 -36.4337 80° East 492 566 35,000  Level FlightAware Transoceanic
12:36AM 50.4840 -36.2219 80° East 492 566 35,000  Level FlightAware Transoceanic
12:37AM 50.5072 -36.0098 80° East 492 566 35,000  Level FlightAware Transoceanic
12:38AM 50.5301 -35.7976 80° East 492 566 35,000  Level FlightAware Transoceanic
12:39AM 50.5526 -35.5851 81° East 492 566 35,000  Level FlightAware Transoceanic
12:40AM 50.5747 -35.3724 81° East 492 566 35,000  Level FlightAware Transoceanic
12:41AM 50.5965 -35.1596 81° East 492 566 35,000  Level FlightAware Transoceanic
12:42AM 50.6178 -34.9465 81° East 492 566 35,000  Level FlightAware Transoceanic
12:43AM 50.6387 -34.7333 81° East 492 566 35,000  Level FlightAware Transoceanic
12:44AM 50.6593 -34.5198 81° East 492 566 35,000  Level FlightAware Transoceanic
12:45AM 50.6795 -34.3062 82° East 492 566 35,000  Level FlightAware Transoceanic
12:46AM 50.6992 -34.0924 82° East 492 566 35,000  Level FlightAware Transoceanic
12:47AM 50.7186 -33.8784 82° East 492 566 35,000  Level FlightAware Transoceanic
12:48AM 50.7376 -33.6642 82° East 492 566 35,000  Level FlightAware Transoceanic
12:49AM 50.7562 -33.4499 82° East 492 566 35,000  Level FlightAware Transoceanic
12:50AM 50.7744 -33.2354 82° East 492 566 35,000  Level FlightAware Transoceanic
12:51AM 50.7922 -33.0207 83° East 492 566 35,000  Level FlightAware Transoceanic
12:52AM 50.8097 -32.8059 83° East 492 566 35,000  Level FlightAware Transoceanic
12:53AM 50.8267 -32.5909 83° East 492 566 35,000  Level FlightAware Transoceanic
12:54AM 50.8433 -32.3758 83° East 492 566 35,000  Level FlightAware Transoceanic
12:55AM 50.8595 -32.1605 83° East 492 566 35,000  Level FlightAware Transoceanic
12:56AM 50.8754 -31.9451 83° East 492 566 35,000  Level FlightAware Transoceanic
12:57AM 50.8908 -31.7295 84° East 492 566 35,000  Level FlightAware Transoceanic
12:58AM 50.9059 -31.5137 84° East 492 566 35,000  Level FlightAware Transoceanic
12:59AM 50.9205 -31.2979 84° East 492 566 35,000  Level FlightAware Transoceanic
01:00AM 50.9347 -31.0819 84° East 492 566 35,000  Level FlightAware Transoceanic
01:01AM 50.9486 -30.8657 84° East 492 566 35,000  Level FlightAware Transoceanic
01:02AM 50.9621 -30.6495 84° East 492 566 35,000  Level FlightAware Transoceanic
01:03AM 50.9751 -30.4331 85° East 492 566 35,000  Level FlightAware Transoceanic
01:04AM 50.9878 -30.2166 85° East 492 566 35,000  Level FlightAware Transoceanic
01:05AM 51.0002 -29.9963 85° East  Level FlightAware Approximate
01:06AM 51.0003 -29.9927 86° East  Level FlightAware Approximate
01:07AM 51.0095 -29.7720 86° East  Level FlightAware Approximate
01:08AM 51.0183 -29.5512 86° East  Level FlightAware Approximate
01:09AM 51.0267 -29.3303 86° East  Level FlightAware Approximate
01:10AM 51.0347 -29.1093 87° East  Level FlightAware Approximate
01:11AM 51.0423 -28.8883 87° East  Level FlightAware Approximate
01:12AM 51.0494 -28.6672 87° East  Level FlightAware Approximate
01:13AM 51.0561 -28.4460 87° East  Level FlightAware Approximate
01:14AM 51.0624 -28.2247 87° East  Level FlightAware Approximate
01:15AM 51.0683 -28.0034 87° East  Level FlightAware Approximate
01:16AM 51.0738 -27.7821 88° East  Level FlightAware Approximate
01:17AM 51.0788 -27.5607 88° East  Level FlightAware Approximate
01:18AM 51.0835 -27.3392 88° East  Level FlightAware Approximate
01:19AM 51.0877 -27.1177 88° East  Level FlightAware Approximate
01:20AM 51.0914 -26.8962 88° East  Level FlightAware Approximate
01:21AM 51.0948 -26.6747 89° East  Level FlightAware Approximate
01:22AM 51.0978 -26.4531 89° East  Level FlightAware Approximate
01:23AM 51.1003 -26.2314 89° East  Level FlightAware Approximate
01:24AM 51.1025 -26.0098 89° East  Level FlightAware Approximate
01:25AM 51.1041 -25.7881 89° East  Level FlightAware Approximate
01:26AM 51.1054 -25.5665 89° East  Level FlightAware Approximate
01:27AM 51.1063 -25.3448 90° East  Level FlightAware Approximate
01:28AM 51.1067 -25.1231 90° East  Level FlightAware Approximate
01:29AM 51.1068 -24.9014 90° East  Level FlightAware Approximate
01:30AM 51.1063 -24.6797 90° East  Level FlightAware Approximate
01:31AM 51.1055 -24.4580 90° East  Level FlightAware Approximate
01:32AM 51.1043 -24.2363 90° East  Level FlightAware Approximate
01:33AM 51.1027 -24.0147 91° East  Level FlightAware Approximate
01:34AM 51.1006 -23.7930 91° East  Level FlightAware Approximate
01:35AM 51.0981 -23.5714 91° East  Level FlightAware Approximate
01:36AM 51.0952 -23.3498 91° East  Level FlightAware Approximate
01:37AM 51.0919 -23.1282 91° East  Level FlightAware Approximate
01:38AM 51.0881 -22.9067 91° East  Level FlightAware Approximate
01:39AM 51.0839 -22.6852 92° East  Level FlightAware Approximate
01:40AM 51.0793 -22.4638 92° East  Level FlightAware Approximate
01:41AM 51.0743 -22.2423 92° East  Level FlightAware Approximate
01:42AM 51.0689 -22.0210 92° East  Level FlightAware Approximate
01:43AM 51.0631 -21.7997 92° East  Level FlightAware Approximate
01:44AM 51.0568 -21.5784 92° East  Level FlightAware Approximate
01:45AM 51.0502 -21.3573 93° East  Level FlightAware Approximate
01:46AM 51.0431 -21.1361 93° East  Level FlightAware Approximate
01:47AM 51.0356 -20.9151 93° East  Level FlightAware Approximate
01:48AM 51.0276 -20.6941 93° East  Level FlightAware Approximate
01:49AM 51.0193 -20.4732 93° East  Level FlightAware Approximate
01:50AM 51.0105 -20.2524 94° East  Level FlightAware Approximate
01:51AM 51.0014 -20.0317 94° East  Level FlightAware Approximate
01:52AM 51.0134 -19.8117 83° East  Level FlightAware Approximate
01:53AM 51.0287 -19.5918 84° East  Level FlightAware Approximate
01:54AM 51.0436 -19.3717 84° East  Level FlightAware Approximate
01:55AM 51.0580 -19.1514 84° East  Level FlightAware Approximate
01:56AM 51.0721 -18.9311 84° East  Level FlightAware Approximate
01:57AM 51.0859 -18.7106 84° East  Level FlightAware Approximate
01:58AM 51.1000 -18.4901 84° East  Level FlightAware Approximate
01:59AM 51.1136 -18.2695 84° East  Level FlightAware Approximate
02:00AM 51.1269 -18.0488 84° East  Level FlightAware Approximate
02:01AM 51.1397 -17.8279 85° East  Level FlightAware Approximate
02:02AM 51.1521 -17.6069 85° East  Level FlightAware Approximate
02:03AM 51.1641 -17.3858 85° East  Level FlightAware Approximate
02:04AM 51.1757 -17.1645 85° East  Level FlightAware Approximate
02:05AM 51.1868 -16.9432 85° East  Level FlightAware Approximate
02:06AM 51.1976 -16.7218 85° East  Level FlightAware Approximate
02:07AM 51.2079 -16.5002 86° East  Level FlightAware Approximate
02:08AM 51.2178 -16.2786 86° East  Level FlightAware Approximate
02:09AM 51.2273 -16.0569 86° East  Level FlightAware Approximate
02:10AM 51.2363 -15.8350 86° East  Level FlightAware Approximate
02:11AM 51.2450 -15.6131 86° East  Level FlightAware Approximate
02:12AM 51.2532 -15.3911 87° East  Level FlightAware Approximate
02:13AM 51.2610 -15.1691 87° East  Level FlightAware Approximate
02:14AM 51.2685 -14.9469 87° East  Level FlightAware Approximate
02:15AM 51.2757 -14.7247 87° East  Level FlightAware Approximate
02:16AM 51.2825 -14.5025 87° East  Level FlightAware Approximate
02:17AM 51.2890 -14.2801 87° East  Level FlightAware Approximate
02:18AM 51.2949 -14.0578 87° East  Level FlightAware Approximate
02:19AM 51.3005 -13.8353 88° East  Level FlightAware Approximate
02:20AM 51.3057 -13.6128 88° East  Level FlightAware Approximate
02:21AM 51.3104 -13.3903 88° East  Level FlightAware Approximate
02:22AM 51.3147 -13.1677 88° East  Level FlightAware Approximate
02:23AM 51.3186 -12.9451 88° East  Level FlightAware Approximate
02:24AM 51.3220 -12.7224 88° East  Level FlightAware Approximate
02:25AM 51.3251 -12.4997 89° East  Level FlightAware Approximate
02:26AM 51.3277 -12.2770 89° East  Level FlightAware Approximate
02:27AM 51.3299 -12.0543 89° East  Level FlightAware Approximate
02:28AM 51.3316 -11.8315 89° East  Level FlightAware Approximate
02:29AM 51.3330 -11.6088 89° East  Level FlightAware Approximate
02:30AM 51.3339 -11.3860 90° East  Level FlightAware Approximate
02:31AM 51.3344 -11.1632 90° East  Level FlightAware Approximate
02:32AM 51.3345 -10.9404 90° East  Level FlightAware Approximate
02:33AM 51.3341 -10.7176 90° East  Level FlightAware Approximate
02:34AM 51.3334 -10.4948 90° East  Level FlightAware Approximate
02:35AM 51.3324 -10.2720 90° East  Level FlightAware Approximate
02:36AM 51.3310 -10.0493 90° East  Level FlightAware Approximate
02:37AM 51.3292 -9.8265 91° East  Level FlightAware Approximate
02:38AM 51.3269 -9.6038 91° East  Level FlightAware Approximate
02:39AM 51.3242 -9.3811 91° East  Level FlightAware Approximate
02:40AM 51.3212 -9.1584 91° East  Level FlightAware Approximate
02:41AM 51.3176 -8.9358 91° East  Level FlightAware Approximate
02:42AM 51.3137 -8.7131 92° East  Level FlightAware Approximate
02:43AM 51.3093 -8.4906 92° East  Level FlightAware Approximate
02:44AM 51.3046 -8.2680 92° East  Level FlightAware Approximate
02:45AM 51.2994 -8.0456 92° East  Level FlightAware Approximate
02:46AM 51.2937 -7.8231 92° East  Level FlightAware Approximate
02:47AM 51.2877 -7.6008 92° East  Level FlightAware Approximate
02:48AM 51.2811 -7.3784 93° East  Level FlightAware Approximate
02:49AM 51.2740 -7.1562 93° East  Level FlightAware Approximate
02:50AM 51.2664 -6.9341 93° East  Level FlightAware Approximate
02:51AM 51.2585 -6.7120 93° East  Level FlightAware Approximate
02:52AM 51.2501 -6.4900 93° East  Level FlightAware Approximate
02:53AM 51.2413 -6.2681 94° East  Level FlightAware Approximate
02:54AM 51.2320 -6.0462 94° East  Level FlightAware Approximate
02:55AM 51.2224 -5.8245 94° East  Level FlightAware Approximate
02:56AM 51.2123 -5.6028 94° East  Level FlightAware Approximate
02:57AM 51.2018 -5.3813 94° East  Level FlightAware Approximate
02:58AM 51.1909 -5.1599 94° East  Level FlightAware Approximate
02:59AM 51.1796 -4.9385 95° East  Level FlightAware Approximate
03:00AM 51.1678 -4.7173 95° East  Level FlightAware Approximate
03:01AM 51.1557 -4.4962 95° East  Level FlightAware Approximate
03:02AM 51.1431 -4.2752 95° East  Level FlightAware Approximate
03:03AM 51.1301 -4.0543 95° East  Level FlightAware Approximate
03:04AM 51.1167 -3.8336 95° East  Level FlightAware Approximate
03:05AM 51.1042 -3.6128 95° East  Level FlightAware Approximate
03:06AM 51.0913 -3.3921 95° East  Level FlightAware Approximate
03:07AM 51.0779 -3.1715 95° East  Level FlightAware Approximate
03:08AM 51.0642 -2.9511 96° East  Level FlightAware Approximate
03:09AM 51.0500 -2.7308 96° East  Level FlightAware Approximate
03:10AM 51.0354 -2.5106 96° East  Level FlightAware Approximate
03:11AM 51.0205 -2.2906 96° East  Level FlightAware Approximate
03:12AM 51.0050 -2.0707 96° East  Level FlightAware Approximate
03:13AM 50.9863 -1.8515 98° East  Level FlightAware Approximate
03:14AM 50.9659 -1.6329 98° East  Level FlightAware Approximate
03:15AM 50.9500 -1.4138 90° East  Level FlightAware Approximate
03:16AM 50.9619 -1.1941 82° East  Level FlightAware Approximate
03:17AM 50.9802 -0.9750 82° East  Level FlightAware Approximate
03:18AM 50.9982 -0.7557 83° East  Level FlightAware Approximate
03:19AM 51.0157 -0.5362 83° East  Level FlightAware Approximate
03:20AM 51.0328 -0.3166 83° East  Level FlightAware Approximate
03:21AM 51.0495 -0.0969 83° East  Level FlightAware Approximate
03:22AM 51.0658 0.1231 83° East  Level FlightAware Approximate
03:23AM 51.0817 0.3432 83° East  Level FlightAware Approximate
03:24AM 51.0972 0.5634 84° East  Level FlightAware Approximate
03:25AM 51.1122 0.7838 84° East  Level FlightAware Approximate
03:26AM 51.1272 1.0043 84° East  Level FlightAware Approximate
03:27AM 51.1419 1.2249 84° East  Level FlightAware Approximate
03:28AM 51.1453 1.4458 94° East  Level FlightAware Approximate
03:29AM 51.1342 1.6669 94° East  Level FlightAware Approximate
03:30AM 51.1227 1.8880 95° East  Level FlightAware Approximate
03:31AM 51.0932 2.1027 110° East  Level FlightAware Approximate
03:32AM 51.0452 2.3106 110° East  Level FlightAware Approximate
03:33AM 50.9969 2.5182 110° East  Level FlightAware Approximate
03:34AM 50.9483 2.7253 110° East  Level FlightAware Approximate
03:35AM 50.8993 2.9320 111° Southeast  Level FlightAware Approximate
03:36AM 50.8499 3.1382 111° Southeast  Level FlightAware Approximate
03:37AM 50.8001 3.3440 111° Southeast  Level FlightAware Approximate
03:38AM 50.7500 3.5493 111° Southeast  Level FlightAware Approximate
03:39AM 50.6995 3.7542 111° Southeast  Level FlightAware Approximate
03:40AM 50.6487 3.9587 111° Southeast  Level FlightAware Approximate
03:41AM 50.5975 4.1627 112° Southeast  Level FlightAware Approximate
03:42AM 50.5459 4.3663 112° Southeast  Level FlightAware Approximate
03:43AM 50.4940 4.5694 112° Southeast  Level FlightAware Approximate
03:44AM 50.4418 4.7721 112° Southeast  Level FlightAware Approximate
03:45AM 50.3891 4.9744 112° Southeast  Level FlightAware Approximate
03:46AM 50.3362 5.1762 112° Southeast  Level FlightAware Approximate
03:47AM 50.2835 5.3752 112° Southeast  Level FlightAware Approximate
03:48AM 50.2305 5.5738 113° Southeast  Level FlightAware Approximate
03:49AM 50.1771 5.7719 113° Southeast  Level FlightAware Approximate
03:50AM 50.1234 5.9696 113° Southeast  Level FlightAware Approximate
03:51AM 50.0694 6.1669 113° Southeast  Level FlightAware Approximate
03:52AM 50.0150 6.3637 113° Southeast  Level FlightAware Approximate
03:53AM 49.9603 6.5600 113° Southeast  Level FlightAware Approximate
03:54AM 49.9053 6.7559 114° Southeast  Level FlightAware Approximate
03:55AM 49.8499 6.9514 114° Southeast  Level FlightAware Approximate
03:56AM 49.7942 7.1464 114° Southeast  Level FlightAware Approximate
03:56AM 50.3410 7.4490 114° Southeast 466 536 37,000  Level FlightAware
03:56AM 50.3020 7.5650 118° Southeast 465 535 37,000  Level FlightAware
03:57AM 49.7382 7.3410 114° Southeast  Level FlightAware Approximate
03:57AM 50.2580 7.6950 118° Southeast 463 533 37,000  Level FlightAware
03:58AM 50.2130 7.8240 119° Southeast 461 531 37,000  Level FlightAware
03:59AM 50.1680 7.9550 118° Southeast 466 536 37,000  Level FlightAware
03:59AM 50.1250 8.0760 119° Southeast 465 535 37,000  Level FlightAware
04:00AM 50.0800 8.2050 118° Southeast 464 534 37,000  Level FlightAware
04:01AM 50.0380 8.3230 119° Southeast 462 532 37,000 -120 Level FlightAware
04:01AM 49.9960 8.4410 119° Southeast 466 536 36,900 -720 Descending FlightAware
04:03AM 49.8860 8.7470 119° Southeast 462 532 35,300 -720 Descending FlightAware
04:04AM 49.8230 8.9180 120° Southeast 461 531 35,000 -240 Descending FlightAware
04:05AM 49.7850 9.0240 119° Southeast 462 532 35,000  Level FlightAware
04:06AM 49.7300 9.1740 120° Southeast 459 528 35,000  Level FlightAware
04:06AM 49.6930 9.2760 119° Southeast 457 526 35,000 -660 Level FlightAware
04:07AM 49.6390 9.4150 121° Southeast 457 526 34,100 -1,200 Descending FlightAware
04:08AM 49.5820 9.5240 129° Southeast 446 513 33,100 -1,500 Descending FlightAware
04:09AM 49.5160 9.6400 131° Southeast 460 529 31,800 -1,800 Descending FlightAware
04:09AM 49.4530 9.7490 132° Southeast 443 510 30,400 -1,920 Descending FlightAware
04:10AM 49.3940 9.8520 131° Southeast 437 503 29,100 -1,800 Descending FlightAware
04:11AM 49.3500 9.9280 132° Southeast 425 489 28,200 -1,800 Descending FlightAware
04:11AM 49.2970 10.0200 131° Southeast 421 484 26,900 -1,740 Descending FlightAware
04:12AM 49.2360 10.1250 132° Southeast 399 459 25,600 -1,560 Descending FlightAware
04:13AM 49.1690 10.2390 132° Southeast 389 448 24,200 -1,200 Descending FlightAware
04:14AM 49.1110 10.3360 132° Southeast 372 428 23,600 -360 Descending FlightAware
04:15AM 49.0610 10.4170 133° Southeast 372 428 23,600 -1,320 Level FlightAware
04:15AM 49.0260 10.4700 135° Southeast 369 425 21,800 -1,980 Descending FlightAware
04:17AM 48.9110 10.6560 133° Southeast 358 412 19,500 -1,860 Descending FlightAware
04:17AM 48.8760 10.7080 136° Southeast 359 413 18,000 -2,040 Descending FlightAware
04:18AM 48.8170 10.7930 136° Southeast 353 406 16,800 -1,500 Descending FlightAware
04:19AM 48.7730 10.8560 137° Southeast 345 397 15,900 -1,080 Descending FlightAware
04:20AM 48.7010 10.9610 136° Southeast 336 387 15,000 -540 Descending FlightAware
04:20AM 48.6580 11.0220 137° Southeast 343 395 15,000  Level FlightAware
04:21AM 48.5880 11.1230 136° Southeast 341 392 15,000 -120 Level FlightAware
04:22AM 48.5440 11.1860 137° Southeast 341 392 14,800 -900 Descending FlightAware
04:23AM 48.4920 11.2610 136° Southeast 326 375 13,800 -1,320 Descending FlightAware
04:24AM 48.4500 11.3200 137° Southeast 315 362 13,000 -1,440 Descending FlightAware
04:24AM 48.4250 11.3900 118° Southeast 319 367 12,000 -1,800 Descending FlightAware
04:24AM 48.4280 11.4420 85° East 315 362 11,400 -960 Descending FlightAware
04:25AM 48.4350 11.5430 84° East 313 360 11,000 -300 Descending FlightAware
04:26AM 48.4410 11.6300 84° East 315 362 11,000  Level FlightAware
04:27AM 48.4480 11.7170 83° East 315 362 11,000 -300 Level FlightAware
04:27AM 48.4550 11.8140 84° East 311 358 10,600 -960 Descending FlightAware
04:28AM 48.4590 11.8800 85° East 309 356 9,800 -1,560 Descending FlightAware
04:28AM 48.4620 11.9320 85° East 305 351 9,200 -1,680 Descending FlightAware
04:29AM 48.4660 11.9960 85° East 302 348 8,300 -1,800 Descending FlightAware
04:29AM 48.4690 12.0490 85° East 300 345 7,600 -1,680 Descending FlightAware
04:30AM 48.4730 12.1100 84° East 296 341 6,800 -1,320 Descending FlightAware
04:30AM 48.4740 12.1620 88° East 297 342 6,200 -1,560 Descending FlightAware
04:31AM 48.4490 12.2060 131° Southeast 284 327 5,400 -1,920 Descending FlightAware
04:31AM 48.4300 12.2110 170° South 277 319 5,100 -1,200 Descending FlightAware
04:31AM 48.4120 12.2020 198° South 260 299 4,800 -960 Descending FlightAware
04:31AM 48.4030 12.1900 222° Southwest 244 281 4,700 -480 Descending FlightAware
04:32AM 48.3890 12.1470 244° Southwest 222 255 4,500 -420 Descending FlightAware
04:32AM 48.3870 12.1250 262° West 214 246 4,400 -720 Descending FlightAware
04:32AM 48.3840 12.0830 264° West 200 230 4,000 -600 Descending FlightAware
04:33AM 48.3820 12.0490 265° West 180 207 3,900 -660 Descending FlightAware
04:33AM 48.3780 12.0130 261° West 167 192 3,400 -900 Descending FlightAware
04:34AM 48.3750 11.9840 261° West 158 182 3,100 -900 Descending FlightAware
04:34AM 48.3730 11.9550 264° West 139 160 2,600 -960 Descending FlightAware
04:35AM 48.3720 11.9400 264° West 134 154 2,400 -780 Descending FlightAware
04:35AM 48.3700 11.9160 263° West 130 150 2,100 -660 Descending FlightAware
04:35AM 48.3670 11.8910 260° West 126 145 1,800 -720 Descending FlightAware
04:36AM 48.3650 11.8630 264° West 131 151 1,400 -840 Descending FlightAware